sensor_id;sensor_type;location;lat;lon;timestamp;temperature;humidity
34231;DHT22;21574;51.538;-0.084;2022-11-18T00:01:21;20.90;66.60
34231;DHT22;21574;51.538;-0.084;2022-11-18T00:03:48;20.90;66.50
34231;DHT22;21574;51.538;-0.084;2022-11-18T00:06:19;20.90;66.40
34231;DHT22;21574;51.538;-0.084;2022-11-18T00:08:45;20.90;66.50
34231;DHT22;21574;51.538;-0.084;2022-11-18T00:11:13;20.90;66.60
34231;DHT22;21574;51.538;-0.084;2022-11-18T00:13:58;20.90;66.60
34231;DHT22;21574;51.538;-0.084;2022-11-18T00:16:42;20.90;66.60
34231;DHT22;21574;51.538;-0.084;2022-11-18T00:19:07;20.90;66.50
34231;DHT22;21574;51.538;-0.084;2022-11-18T00:21:33;20.90;66.60
34231;DHT22;21574;51.538;-0.084;2022-11-18T00:23:59;20.90;66.50
34231;DHT22;21574;51.538;-0.084;2022-11-18T00:26:24;20.90;66.50
34231;DHT22;21574;51.538;-0.084;2022-11-18T00:28:50;20.90;66.50
34231;DHT22;21574;51.538;-0.084;2022-11-18T00:31:15;20.90;66.40
34231;DHT22;21574;51.538;-0.084;2022-11-18T00:33:41;20.90;66.60
34231;DHT22;21574;51.538;-0.084;2022-11-18T00:36:11;20.90;66.10
34231;DHT22;21574;51.538;-0.084;2022-11-18T00:38:37;20.90;66.10
34231;DHT22;21574;51.538;-0.084;2022-11-18T00:41:11;20.90;66.10
34231;DHT22;21574;51.538;-0.084;2022-11-18T00:43:37;20.90;66.20
34231;DHT22;21574;51.538;-0.084;2022-11-18T00:46:04;20.90;66.30
34231;DHT22;21574;51.538;-0.084;2022-11-18T00:48:30;20.90;66.10
34231;DHT22;21574;51.538;-0.084;2022-11-18T00:50:58;20.90;66.20
34231;DHT22;21574;51.538;-0.084;2022-11-18T00:53:25;20.80;66.10
34231;DHT22;21574;51.538;-0.084;2022-11-18T00:55:51;20.90;66.20
34231;DHT22;21574;51.538;-0.084;2022-11-18T00:58:17;20.80;66.20
34231;DHT22;21574;51.538;-0.084;2022-11-18T01:00:44;20.80;66.30
34231;DHT22;21574;51.538;-0.084;2022-11-18T01:03:11;20.80;66.20
34231;DHT22;21574;51.538;-0.084;2022-11-18T01:05:37;20.80;66.30
34231;DHT22;21574;51.538;-0.084;2022-11-18T01:08:05;20.80;66.40
34231;DHT22;21574;51.538;-0.084;2022-11-18T01:10:32;20.80;66.40
34231;DHT22;21574;51.538;-0.084;2022-11-18T01:12:57;20.80;66.50
34231;DHT22;21574;51.538;-0.084;2022-11-18T01:15:43;20.80;66.40
34231;DHT22;21574;51.538;-0.084;2022-11-18T01:18:09;20.80;66.50
34231;DHT22;21574;51.538;-0.084;2022-11-18T01:20:35;20.80;66.60
34231;DHT22;21574;51.538;-0.084;2022-11-18T01:23:01;20.80;66.60
34231;DHT22;21574;51.538;-0.084;2022-11-18T01:25:28;20.80;66.90
34231;DHT22;21574;51.538;-0.084;2022-11-18T01:27:53;20.80;66.50
34231;DHT22;21574;51.538;-0.084;2022-11-18T01:30:19;20.80;66.60
34231;DHT22;21574;51.538;-0.084;2022-11-18T01:32:45;20.80;66.70
34231;DHT22;21574;51.538;-0.084;2022-11-18T01:35:11;20.80;66.60
34231;DHT22;21574;51.538;-0.084;2022-11-18T01:37:37;20.80;66.60
34231;DHT22;21574;51.538;-0.084;2022-11-18T01:40:04;20.80;66.60
34231;DHT22;21574;51.538;-0.084;2022-11-18T01:42:30;20.80;66.60
34231;DHT22;21574;51.538;-0.084;2022-11-18T01:45:24;20.80;66.70
34231;DHT22;21574;51.538;-0.084;2022-11-18T01:48:12;20.80;66.80
34231;DHT22;21574;51.538;-0.084;2022-11-18T01:50:48;20.80;66.40
34231;DHT22;21574;51.538;-0.084;2022-11-18T01:53:21;20.80;66.40
34231;DHT22;21574;51.538;-0.084;2022-11-18T01:55:50;20.80;66.50
34231;DHT22;21574;51.538;-0.084;2022-11-18T02:00:53;20.80;66.50
34231;DHT22;21574;51.538;-0.084;2022-11-18T02:03:19;20.80;66.30
34231;DHT22;21574;51.538;-0.084;2022-11-18T02:05:46;20.80;66.40
34231;DHT22;21574;51.538;-0.084;2022-11-18T02:08:14;20.80;66.40
34231;DHT22;21574;51.538;-0.084;2022-11-18T02:10:40;20.80;66.50
34231;DHT22;21574;51.538;-0.084;2022-11-18T02:13:06;20.80;66.40
34231;DHT22;21574;51.538;-0.084;2022-11-18T02:18:39;20.70;66.40
34231;DHT22;21574;51.538;-0.084;2022-11-18T02:30:11;20.80;66.70
34231;DHT22;21574;51.538;-0.084;2022-11-18T02:35:43;20.80;66.60
34231;DHT22;21574;51.538;-0.084;2022-11-18T02:38:13;20.70;66.60
34231;DHT22;21574;51.538;-0.084;2022-11-18T02:40:46;20.80;66.60
34231;DHT22;21574;51.538;-0.084;2022-11-18T02:43:17;20.80;66.50
34231;DHT22;21574;51.538;-0.084;2022-11-18T02:45:48;20.80;66.70
34231;DHT22;21574;51.538;-0.084;2022-11-18T02:48:17;20.80;66.70
34231;DHT22;21574;51.538;-0.084;2022-11-18T02:50:44;20.70;66.70
34231;DHT22;21574;51.538;-0.084;2022-11-18T02:53:15;20.80;67.30
34231;DHT22;21574;51.538;-0.084;2022-11-18T02:55:43;20.70;66.70
34231;DHT22;21574;51.538;-0.084;2022-11-18T02:58:10;20.70;66.50
34231;DHT22;21574;51.538;-0.084;2022-11-18T03:00:36;20.70;66.40
34231;DHT22;21574;51.538;-0.084;2022-11-18T03:03:26;20.70;66.50
34231;DHT22;21574;51.538;-0.084;2022-11-18T03:11:25;20.70;66.50
34231;DHT22;21574;51.538;-0.084;2022-11-18T03:16:57;20.70;66.50
34231;DHT22;21574;51.538;-0.084;2022-11-18T03:19:59;20.70;66.70
34231;DHT22;21574;51.538;-0.084;2022-11-18T03:22:55;20.70;66.70
34231;DHT22;21574;51.538;-0.084;2022-11-18T03:25:30;20.70;66.80
34231;DHT22;21574;51.538;-0.084;2022-11-18T03:28:10;20.70;66.70
34231;DHT22;21574;51.538;-0.084;2022-11-18T03:30:44;20.70;66.80
34231;DHT22;21574;51.538;-0.084;2022-11-18T03:33:16;20.70;66.80
34231;DHT22;21574;51.538;-0.084;2022-11-18T03:35:45;20.70;66.70
34231;DHT22;21574;51.538;-0.084;2022-11-18T03:38:26;20.70;66.40
34231;DHT22;21574;51.538;-0.084;2022-11-18T03:40:57;20.70;66.30
34231;DHT22;21574;51.538;-0.084;2022-11-18T03:43:27;20.70;66.20
34231;DHT22;21574;51.538;-0.084;2022-11-18T03:46:06;20.70;66.30
34231;DHT22;21574;51.538;-0.084;2022-11-18T03:48:37;20.70;66.30
34231;DHT22;21574;51.538;-0.084;2022-11-18T03:51:08;20.70;66.30
34231;DHT22;21574;51.538;-0.084;2022-11-18T03:54:47;20.70;66.20
34231;DHT22;21574;51.538;-0.084;2022-11-18T03:56:43;20.70;66.20
34231;DHT22;21574;51.538;-0.084;2022-11-18T03:59:13;20.70;66.20
34231;DHT22;21574;51.538;-0.084;2022-11-18T04:01:42;20.70;66.10
34231;DHT22;21574;51.538;-0.084;2022-11-18T04:04:09;20.70;66.00
34231;DHT22;21574;51.538;-0.084;2022-11-18T04:06:40;20.70;66.60
34231;DHT22;21574;51.538;-0.084;2022-11-18T04:09:23;20.70;66.00
34231;DHT22;21574;51.538;-0.084;2022-11-18T04:11:54;20.70;66.00
34231;DHT22;21574;51.538;-0.084;2022-11-18T04:14:31;20.70;66.10
34231;DHT22;21574;51.538;-0.084;2022-11-18T04:16:57;20.70;66.10
34231;DHT22;21574;51.538;-0.084;2022-11-18T04:19:22;20.70;66.10
34231;DHT22;21574;51.538;-0.084;2022-11-18T04:21:48;20.70;66.20
34231;DHT22;21574;51.538;-0.084;2022-11-18T04:24:14;20.70;66.20
34231;DHT22;21574;51.538;-0.084;2022-11-18T04:26:41;20.70;66.10
34231;DHT22;21574;51.538;-0.084;2022-11-18T04:29:06;20.70;65.80
34231;DHT22;21574;51.538;-0.084;2022-11-18T04:31:32;20.70;65.50
34231;DHT22;21574;51.538;-0.084;2022-11-18T04:33:57;20.70;66.10
34231;DHT22;21574;51.538;-0.084;2022-11-18T04:36:23;20.70;66.10
34231;DHT22;21574;51.538;-0.084;2022-11-18T04:38:49;20.70;66.00
34231;DHT22;21574;51.538;-0.084;2022-11-18T04:41:14;20.70;66.00
34231;DHT22;21574;51.538;-0.084;2022-11-18T04:43:40;20.70;66.00
34231;DHT22;21574;51.538;-0.084;2022-11-18T04:46:06;20.70;65.90
34231;DHT22;21574;51.538;-0.084;2022-11-18T04:48:32;20.70;65.90
34231;DHT22;21574;51.538;-0.084;2022-11-18T04:51:01;20.70;65.90
34231;DHT22;21574;51.538;-0.084;2022-11-18T04:53:27;20.70;65.90
34231;DHT22;21574;51.538;-0.084;2022-11-18T04:55:52;20.70;65.70
34231;DHT22;21574;51.538;-0.084;2022-11-18T04:58:18;20.70;65.70
34231;DHT22;21574;51.538;-0.084;2022-11-18T05:00:44;20.70;65.80
34231;DHT22;21574;51.538;-0.084;2022-11-18T05:03:09;20.70;65.70
34231;DHT22;21574;51.538;-0.084;2022-11-18T05:05:35;20.70;65.70
34231;DHT22;21574;51.538;-0.084;2022-11-18T05:08:00;20.70;65.70
34231;DHT22;21574;51.538;-0.084;2022-11-18T05:10:26;20.70;65.70
34231;DHT22;21574;51.538;-0.084;2022-11-18T05:12:52;20.70;65.60
34231;DHT22;21574;51.538;-0.084;2022-11-18T05:15:20;20.70;65.60
34231;DHT22;21574;51.538;-0.084;2022-11-18T05:17:46;20.70;65.60
34231;DHT22;21574;51.538;-0.084;2022-11-18T05:20:12;20.70;65.60
34231;DHT22;21574;51.538;-0.084;2022-11-18T05:22:39;20.70;65.60
34231;DHT22;21574;51.538;-0.084;2022-11-18T05:25:05;20.70;65.60
34231;DHT22;21574;51.538;-0.084;2022-11-18T05:27:31;20.80;65.60
34231;DHT22;21574;51.538;-0.084;2022-11-18T05:29:56;20.80;65.90
34231;DHT22;21574;51.538;-0.084;2022-11-18T05:32:22;20.70;63.10
34231;DHT22;21574;51.538;-0.084;2022-11-18T05:34:47;20.80;64.60
34231;DHT22;21574;51.538;-0.084;2022-11-18T05:37:13;20.80;65.10
34231;DHT22;21574;51.538;-0.084;2022-11-18T05:39:39;20.70;65.10
34231;DHT22;21574;51.538;-0.084;2022-11-18T05:42:04;20.70;65.00
34231;DHT22;21574;51.538;-0.084;2022-11-18T05:44:49;20.70;65.50
34231;DHT22;21574;51.538;-0.084;2022-11-18T05:47:16;20.70;65.30
34231;DHT22;21574;51.538;-0.084;2022-11-18T05:49:42;20.80;65.00
34231;DHT22;21574;51.538;-0.084;2022-11-18T05:52:07;20.70;64.80
34231;DHT22;21574;51.538;-0.084;2022-11-18T05:54:33;20.80;65.40
34231;DHT22;21574;51.538;-0.084;2022-11-18T05:56:58;20.80;65.50
34231;DHT22;21574;51.538;-0.084;2022-11-18T05:59:24;20.80;65.00
34231;DHT22;21574;51.538;-0.084;2022-11-18T06:01:54;20.70;65.10
34231;DHT22;21574;51.538;-0.084;2022-11-18T06:04:43;20.80;64.20
34231;DHT22;21574;51.538;-0.084;2022-11-18T06:07:38;20.80;64.10
34231;DHT22;21574;51.538;-0.084;2022-11-18T06:10:05;20.80;64.40
34231;DHT22;21574;51.538;-0.084;2022-11-18T06:12:38;20.80;64.60
34231;DHT22;21574;51.538;-0.084;2022-11-18T06:15:19;20.80;64.90
34231;DHT22;21574;51.538;-0.084;2022-11-18T06:18:07;20.80;65.20
34231;DHT22;21574;51.538;-0.084;2022-11-18T06:20:35;20.80;65.40
34231;DHT22;21574;51.538;-0.084;2022-11-18T06:23:02;20.80;65.80
34231;DHT22;21574;51.538;-0.084;2022-11-18T06:25:28;20.80;65.90
34231;DHT22;21574;51.538;-0.084;2022-11-18T06:27:56;20.90;66.10
34231;DHT22;21574;51.538;-0.084;2022-11-18T06:30:23;20.90;67.00
34231;DHT22;21574;51.538;-0.084;2022-11-18T06:32:48;20.90;65.90
34231;DHT22;21574;51.538;-0.084;2022-11-18T06:35:14;20.90;65.60
34231;DHT22;21574;51.538;-0.084;2022-11-18T06:37:40;20.80;65.20
34231;DHT22;21574;51.538;-0.084;2022-11-18T06:40:06;20.80;65.30
34231;DHT22;21574;51.538;-0.084;2022-11-18T06:42:32;20.80;65.30
34231;DHT22;21574;51.538;-0.084;2022-11-18T06:45:16;20.80;65.60
34231;DHT22;21574;51.538;-0.084;2022-11-18T06:47:41;20.80;65.20
34231;DHT22;21574;51.538;-0.084;2022-11-18T06:50:07;20.80;65.10
34231;DHT22;21574;51.538;-0.084;2022-11-18T06:52:33;20.80;66.50
34231;DHT22;21574;51.538;-0.084;2022-11-18T06:54:59;20.80;66.40
34231;DHT22;21574;51.538;-0.084;2022-11-18T06:57:24;20.80;67.00
34231;DHT22;21574;51.538;-0.084;2022-11-18T06:59:50;20.80;67.30
34231;DHT22;21574;51.538;-0.084;2022-11-18T07:02:15;20.90;67.80
34231;DHT22;21574;51.538;-0.084;2022-11-18T07:04:44;20.90;67.60
34231;DHT22;21574;51.538;-0.084;2022-11-18T07:07:09;20.90;67.40
34231;DHT22;21574;51.538;-0.084;2022-11-18T07:09:35;20.90;67.40
34231;DHT22;21574;51.538;-0.084;2022-11-18T07:12:02;20.90;67.40
34231;DHT22;21574;51.538;-0.084;2022-11-18T07:14:28;20.90;67.40
34231;DHT22;21574;51.538;-0.084;2022-11-18T07:16:54;20.90;67.40
34231;DHT22;21574;51.538;-0.084;2022-11-18T07:19:19;20.90;67.40
34231;DHT22;21574;51.538;-0.084;2022-11-18T07:21:45;20.90;67.40
34231;DHT22;21574;51.538;-0.084;2022-11-18T07:24:13;20.90;67.40
34231;DHT22;21574;51.538;-0.084;2022-11-18T07:26:39;20.90;67.10
34231;DHT22;21574;51.538;-0.084;2022-11-18T07:29:05;20.90;67.10
34231;DHT22;21574;51.538;-0.084;2022-11-18T07:31:31;20.90;67.10
34231;DHT22;21574;51.538;-0.084;2022-11-18T07:33:57;20.90;67.00
34231;DHT22;21574;51.538;-0.084;2022-11-18T07:36:25;20.90;67.00
34231;DHT22;21574;51.538;-0.084;2022-11-18T07:38:52;20.90;67.00
34231;DHT22;21574;51.538;-0.084;2022-11-18T07:41:20;20.90;67.00
34231;DHT22;21574;51.538;-0.084;2022-11-18T07:43:46;20.90;66.90
34231;DHT22;21574;51.538;-0.084;2022-11-18T07:46:14;20.90;66.50
34231;DHT22;21574;51.538;-0.084;2022-11-18T07:48:40;20.90;66.60
34231;DHT22;21574;51.538;-0.084;2022-11-18T07:51:07;20.90;66.40
34231;DHT22;21574;51.538;-0.084;2022-11-18T07:53:33;21.00;66.40
34231;DHT22;21574;51.538;-0.084;2022-11-18T07:55:59;21.00;66.30
34231;DHT22;21574;51.538;-0.084;2022-11-18T07:58:25;21.00;66.20
34231;DHT22;21574;51.538;-0.084;2022-11-18T08:00:51;21.00;66.10
34231;DHT22;21574;51.538;-0.084;2022-11-18T08:03:17;21.00;66.00
34231;DHT22;21574;51.538;-0.084;2022-11-18T08:05:43;21.00;65.90
34231;DHT22;21574;51.538;-0.084;2022-11-18T08:08:08;21.00;65.90
34231;DHT22;21574;51.538;-0.084;2022-11-18T08:10:35;21.00;65.80
34231;DHT22;21574;51.538;-0.084;2022-11-18T08:13:01;21.00;65.80
34231;DHT22;21574;51.538;-0.084;2022-11-18T08:15:26;21.00;65.80
34231;DHT22;21574;51.538;-0.084;2022-11-18T08:17:52;21.00;65.80
34231;DHT22;21574;51.538;-0.084;2022-11-18T08:20:18;21.00;65.70
34231;DHT22;21574;51.538;-0.084;2022-11-18T08:22:43;21.00;65.70
34231;DHT22;21574;51.538;-0.084;2022-11-18T08:25:09;21.00;65.70
34231;DHT22;21574;51.538;-0.084;2022-11-18T08:27:35;21.00;65.70
34231;DHT22;21574;51.538;-0.084;2022-11-18T08:30:00;21.00;65.70
34231;DHT22;21574;51.538;-0.084;2022-11-18T08:32:26;21.10;65.80
34231;DHT22;21574;51.538;-0.084;2022-11-18T08:34:51;21.10;66.30
34231;DHT22;21574;51.538;-0.084;2022-11-18T08:37:17;21.10;65.80
34231;DHT22;21574;51.538;-0.084;2022-11-18T08:39:43;21.10;66.10
34231;DHT22;21574;51.538;-0.084;2022-11-18T08:42:09;21.20;66.00
34231;DHT22;21574;51.538;-0.084;2022-11-18T08:44:35;21.20;66.40
34231;DHT22;21574;51.538;-0.084;2022-11-18T08:47:01;21.30;66.20
34231;DHT22;21574;51.538;-0.084;2022-11-18T08:49:26;21.20;67.10
34231;DHT22;21574;51.538;-0.084;2022-11-18T08:51:52;21.20;67.80
34231;DHT22;21574;51.538;-0.084;2022-11-18T08:54:18;21.20;67.00
34231;DHT22;21574;51.538;-0.084;2022-11-18T08:56:44;21.30;67.50
34231;DHT22;21574;51.538;-0.084;2022-11-18T08:59:09;21.20;67.40
34231;DHT22;21574;51.538;-0.084;2022-11-18T09:01:38;21.30;67.40
34231;DHT22;21574;51.538;-0.084;2022-11-18T09:04:06;21.30;67.30
34231;DHT22;21574;51.538;-0.084;2022-11-18T09:06:32;21.30;67.30
34231;DHT22;21574;51.538;-0.084;2022-11-18T09:08:59;21.30;67.20
34231;DHT22;21574;51.538;-0.084;2022-11-18T09:11:26;21.30;67.10
34231;DHT22;21574;51.538;-0.084;2022-11-18T09:13:53;21.30;67.10
34231;DHT22;21574;51.538;-0.084;2022-11-18T09:16:21;21.30;66.90
34231;DHT22;21574;51.538;-0.084;2022-11-18T09:18:48;21.30;66.80
34231;DHT22;21574;51.538;-0.084;2022-11-18T09:21:14;21.30;66.70
34231;DHT22;21574;51.538;-0.084;2022-11-18T09:23:40;21.30;66.60
34231;DHT22;21574;51.538;-0.084;2022-11-18T09:26:13;21.30;66.60
34231;DHT22;21574;51.538;-0.084;2022-11-18T09:28:40;21.40;66.60
34231;DHT22;21574;51.538;-0.084;2022-11-18T09:31:10;21.40;67.30
34231;DHT22;21574;51.538;-0.084;2022-11-18T09:33:37;21.40;66.80
34231;DHT22;21574;51.538;-0.084;2022-11-18T09:36:23;21.40;67.70
34231;DHT22;21574;51.538;-0.084;2022-11-18T09:38:49;21.40;66.70
34231;DHT22;21574;51.538;-0.084;2022-11-18T09:42:04;21.40;66.50
34231;DHT22;21574;51.538;-0.084;2022-11-18T09:49:43;21.40;66.20
34231;DHT22;21574;51.538;-0.084;2022-11-18T09:52:23;21.40;66.10
34231;DHT22;21574;51.538;-0.084;2022-11-18T09:54:50;21.40;66.60
34231;DHT22;21574;51.538;-0.084;2022-11-18T09:57:19;21.40;66.00
34231;DHT22;21574;51.538;-0.084;2022-11-18T09:59:45;21.40;65.90
34231;DHT22;21574;51.538;-0.084;2022-11-18T10:02:28;21.40;65.80
34231;DHT22;21574;51.538;-0.084;2022-11-18T10:04:59;21.40;65.80
34231;DHT22;21574;51.538;-0.084;2022-11-18T10:07:37;21.40;65.70
34231;DHT22;21574;51.538;-0.084;2022-11-18T10:10:14;21.40;65.60
34231;DHT22;21574;51.538;-0.084;2022-11-18T10:12:48;21.40;65.60
34231;DHT22;21574;51.538;-0.084;2022-11-18T10:15:38;21.40;65.50
34231;DHT22;21574;51.538;-0.084;2022-11-18T10:21:17;21.40;65.30
34231;DHT22;21574;51.538;-0.084;2022-11-18T10:23:55;21.40;65.20
34231;DHT22;21574;51.538;-0.084;2022-11-18T10:26:33;21.40;65.20
34231;DHT22;21574;51.538;-0.084;2022-11-18T10:28:59;21.50;65.20
34231;DHT22;21574;51.538;-0.084;2022-11-18T10:31:25;21.40;65.10
34231;DHT22;21574;51.538;-0.084;2022-11-18T10:34:00;21.40;65.00
34231;DHT22;21574;51.538;-0.084;2022-11-18T10:36:28;21.40;65.00
34231;DHT22;21574;51.538;-0.084;2022-11-18T10:39:09;21.40;65.00
34231;DHT22;21574;51.538;-0.084;2022-11-18T10:41:43;21.40;64.90
34231;DHT22;21574;51.538;-0.084;2022-11-18T10:49:48;21.50;64.90
34231;DHT22;21574;51.538;-0.084;2022-11-18T10:52:14;21.50;64.80
34231;DHT22;21574;51.538;-0.084;2022-11-18T10:54:41;21.50;64.80
34231;DHT22;21574;51.538;-0.084;2022-11-18T10:59:39;21.50;64.70
34231;DHT22;21574;51.538;-0.084;2022-11-18T11:02:22;21.50;64.70
34231;DHT22;21574;51.538;-0.084;2022-11-18T11:04:56;21.50;64.60
34231;DHT22;21574;51.538;-0.084;2022-11-18T11:12:30;21.50;65.10
34231;DHT22;21574;51.538;-0.084;2022-11-18T11:15:01;21.50;64.50
34231;DHT22;21574;51.538;-0.084;2022-11-18T11:17:37;21.50;64.40
34231;DHT22;21574;51.538;-0.084;2022-11-18T11:22:43;21.50;64.30
34231;DHT22;21574;51.538;-0.084;2022-11-18T11:25:17;21.50;64.30
34231;DHT22;21574;51.538;-0.084;2022-11-18T11:27:47;21.50;64.20
34231;DHT22;21574;51.538;-0.084;2022-11-18T11:30:21;21.50;64.20
34231;DHT22;21574;51.538;-0.084;2022-11-18T11:41:25;21.50;64.10
34231;DHT22;21574;51.538;-0.084;2022-11-18T11:47:34;21.50;64.20
34231;DHT22;21574;51.538;-0.084;2022-11-18T11:56:16;21.50;63.80
34231;DHT22;21574;51.538;-0.084;2022-11-18T11:58:55;21.50;63.80
34231;DHT22;21574;51.538;-0.084;2022-11-18T12:04:42;21.50;63.70
34231;DHT22;21574;51.538;-0.084;2022-11-18T12:07:20;21.50;63.70
34231;DHT22;21574;51.538;-0.084;2022-11-18T12:13:33;21.60;63.70
34231;DHT22;21574;51.538;-0.084;2022-11-18T12:21:03;21.50;63.60
34231;DHT22;21574;51.538;-0.084;2022-11-18T12:23:30;21.50;63.60
34231;DHT22;21574;51.538;-0.084;2022-11-18T12:25:58;21.60;63.60
34231;DHT22;21574;51.538;-0.084;2022-11-18T12:36:38;21.50;63.50
34231;DHT22;21574;51.538;-0.084;2022-11-18T12:41:53;21.60;63.30
34231;DHT22;21574;51.538;-0.084;2022-11-18T12:44:39;21.60;63.00
34231;DHT22;21574;51.538;-0.084;2022-11-18T12:47:05;21.60;63.40
34231;DHT22;21574;51.538;-0.084;2022-11-18T12:52:01;21.60;63.50
34231;DHT22;21574;51.538;-0.084;2022-11-18T12:56:54;21.60;63.70
34231;DHT22;21574;51.538;-0.084;2022-11-18T12:59:34;21.60;63.50
34231;DHT22;21574;51.538;-0.084;2022-11-18T13:02:02;21.60;63.70
34231;DHT22;21574;51.538;-0.084;2022-11-18T13:04:28;21.60;63.70
34231;DHT22;21574;51.538;-0.084;2022-11-18T13:06:54;21.60;63.80
34231;DHT22;21574;51.538;-0.084;2022-11-18T13:09:43;21.60;64.00
34231;DHT22;21574;51.538;-0.084;2022-11-18T13:12:14;21.60;63.70
34231;DHT22;21574;51.538;-0.084;2022-11-18T13:14:42;21.60;63.70
34231;DHT22;21574;51.538;-0.084;2022-11-18T13:17:41;21.60;63.80
34231;DHT22;21574;51.538;-0.084;2022-11-18T13:22:56;21.60;64.00
34231;DHT22;21574;51.538;-0.084;2022-11-18T13:25:42;21.60;64.10
34231;DHT22;21574;51.538;-0.084;2022-11-18T13:31:26;21.60;64.10
34231;DHT22;21574;51.538;-0.084;2022-11-18T13:33:54;21.60;64.20
34231;DHT22;21574;51.538;-0.084;2022-11-18T13:36:24;21.60;64.20
34231;DHT22;21574;51.538;-0.084;2022-11-18T13:39:04;21.60;64.20
34231;DHT22;21574;51.538;-0.084;2022-11-18T13:41:32;21.60;63.90
34231;DHT22;21574;51.538;-0.084;2022-11-18T13:44:29;21.60;63.90
34231;DHT22;21574;51.538;-0.084;2022-11-18T13:47:02;21.60;64.00
34231;DHT22;21574;51.538;-0.084;2022-11-18T13:52:16;21.60;64.10
34231;DHT22;21574;51.538;-0.084;2022-11-18T13:54:44;21.60;63.90
34231;DHT22;21574;51.538;-0.084;2022-11-18T13:57:17;21.60;63.90
34231;DHT22;21574;51.538;-0.084;2022-11-18T13:59:45;21.60;64.00
34231;DHT22;21574;51.538;-0.084;2022-11-18T14:02:13;21.60;63.80
34231;DHT22;21574;51.538;-0.084;2022-11-18T14:04:51;21.60;64.00
34231;DHT22;21574;51.538;-0.084;2022-11-18T14:07:33;21.50;63.80
34231;DHT22;21574;51.538;-0.084;2022-11-18T14:10:09;21.60;63.90
34231;DHT22;21574;51.538;-0.084;2022-11-18T14:12:39;21.60;63.90
34231;DHT22;21574;51.538;-0.084;2022-11-18T14:15:32;21.50;63.90
34231;DHT22;21574;51.538;-0.084;2022-11-18T14:17:59;21.60;63.90
34231;DHT22;21574;51.538;-0.084;2022-11-18T14:20:27;21.60;63.80
34231;DHT22;21574;51.538;-0.084;2022-11-18T14:22:58;21.50;63.80
34231;DHT22;21574;51.538;-0.084;2022-11-18T14:25:30;21.50;63.50
34231;DHT22;21574;51.538;-0.084;2022-11-18T14:28:10;21.60;63.10
34231;DHT22;21574;51.538;-0.084;2022-11-18T14:30:38;21.60;63.20
34231;DHT22;21574;51.538;-0.084;2022-11-18T14:35:32;21.60;63.40
34231;DHT22;21574;51.538;-0.084;2022-11-18T14:37:58;21.60;63.40
34231;DHT22;21574;51.538;-0.084;2022-11-18T14:40:23;21.50;63.30
34231;DHT22;21574;51.538;-0.084;2022-11-18T14:42:49;21.60;63.30
34231;DHT22;21574;51.538;-0.084;2022-11-18T14:45:15;21.60;63.40
34231;DHT22;21574;51.538;-0.084;2022-11-18T14:47:40;21.60;63.30
34231;DHT22;21574;51.538;-0.084;2022-11-18T14:50:13;21.50;63.30
34231;DHT22;21574;51.538;-0.084;2022-11-18T14:52:39;21.60;63.30
34231;DHT22;21574;51.538;-0.084;2022-11-18T14:55:05;21.60;63.30
34231;DHT22;21574;51.538;-0.084;2022-11-18T14:57:31;21.60;63.30
34231;DHT22;21574;51.538;-0.084;2022-11-18T14:59:57;21.60;63.40
34231;DHT22;21574;51.538;-0.084;2022-11-18T15:02:23;21.60;63.20
34231;DHT22;21574;51.538;-0.084;2022-11-18T15:04:48;21.60;63.10
34231;DHT22;21574;51.538;-0.084;2022-11-18T15:07:15;21.60;63.20
34231;DHT22;21574;51.538;-0.084;2022-11-18T15:09:41;21.60;63.20
34231;DHT22;21574;51.538;-0.084;2022-11-18T15:12:07;21.60;63.00
34231;DHT22;21574;51.538;-0.084;2022-11-18T15:14:33;21.60;63.10
34231;DHT22;21574;51.538;-0.084;2022-11-18T15:17:00;21.60;63.10
34231;DHT22;21574;51.538;-0.084;2022-11-18T15:19:26;21.50;63.10
34231;DHT22;21574;51.538;-0.084;2022-11-18T15:21:53;21.60;63.10
34231;DHT22;21574;51.538;-0.084;2022-11-18T15:24:19;21.60;63.40
34231;DHT22;21574;51.538;-0.084;2022-11-18T15:26:46;21.50;63.10
34231;DHT22;21574;51.538;-0.084;2022-11-18T15:29:22;21.50;63.20
34231;DHT22;21574;51.538;-0.084;2022-11-18T15:31:49;21.50;63.10
34231;DHT22;21574;51.538;-0.084;2022-11-18T15:34:16;21.60;63.10
34231;DHT22;21574;51.538;-0.084;2022-11-18T15:36:42;21.50;63.00
34231;DHT22;21574;51.538;-0.084;2022-11-18T15:39:09;21.50;63.00
34231;DHT22;21574;51.538;-0.084;2022-11-18T15:41:35;21.50;63.00
34231;DHT22;21574;51.538;-0.084;2022-11-18T15:44:02;21.50;63.50
34231;DHT22;21574;51.538;-0.084;2022-11-18T15:46:28;21.50;63.00
34231;DHT22;21574;51.538;-0.084;2022-11-18T15:48:56;21.50;62.90
34231;DHT22;21574;51.538;-0.084;2022-11-18T15:51:23;21.50;62.90
34231;DHT22;21574;51.538;-0.084;2022-11-18T15:53:49;21.50;63.10
34231;DHT22;21574;51.538;-0.084;2022-11-18T15:58:44;21.50;62.50
34231;DHT22;21574;51.538;-0.084;2022-11-18T16:01:10;21.50;62.70
34231;DHT22;21574;51.538;-0.084;2022-11-18T16:03:36;21.50;62.90
34231;DHT22;21574;51.538;-0.084;2022-11-18T16:06:02;21.50;62.90
34231;DHT22;21574;51.538;-0.084;2022-11-18T16:08:28;21.50;62.90
34231;DHT22;21574;51.538;-0.084;2022-11-18T16:10:55;21.50;62.90
34231;DHT22;21574;51.538;-0.084;2022-11-18T16:13:39;21.50;62.70
34231;DHT22;21574;51.538;-0.084;2022-11-18T16:16:05;21.50;62.80
34231;DHT22;21574;51.538;-0.084;2022-11-18T16:18:31;21.50;62.80
34231;DHT22;21574;51.538;-0.084;2022-11-18T16:20:58;21.50;62.80
34231;DHT22;21574;51.538;-0.084;2022-11-18T16:23:24;21.50;62.90
34231;DHT22;21574;51.538;-0.084;2022-11-18T16:25:51;21.50;62.70
34231;DHT22;21574;51.538;-0.084;2022-11-18T16:28:17;21.50;62.60
34231;DHT22;21574;51.538;-0.084;2022-11-18T16:30:49;21.50;62.60
34231;DHT22;21574;51.538;-0.084;2022-11-18T16:33:33;21.50;62.50
34231;DHT22;21574;51.538;-0.084;2022-11-18T16:35:59;21.50;62.60
34231;DHT22;21574;51.538;-0.084;2022-11-18T16:38:24;21.50;62.60
34231;DHT22;21574;51.538;-0.084;2022-11-18T16:40:54;21.50;62.60
34231;DHT22;21574;51.538;-0.084;2022-11-18T16:43:21;21.50;62.60
34231;DHT22;21574;51.538;-0.084;2022-11-18T16:45:53;21.40;63.10
34231;DHT22;21574;51.538;-0.084;2022-11-18T16:48:20;21.40;62.60
34231;DHT22;21574;51.538;-0.084;2022-11-18T16:51:06;21.50;62.60
34231;DHT22;21574;51.538;-0.084;2022-11-18T16:53:57;21.40;62.50
34231;DHT22;21574;51.538;-0.084;2022-11-18T16:56:26;21.40;62.50
34231;DHT22;21574;51.538;-0.084;2022-11-18T16:59:06;21.40;62.50
34231;DHT22;21574;51.538;-0.084;2022-11-18T17:01:35;21.40;62.50
34231;DHT22;21574;51.538;-0.084;2022-11-18T17:04:00;21.40;62.50
34231;DHT22;21574;51.538;-0.084;2022-11-18T17:06:26;21.40;62.40
34231;DHT22;21574;51.538;-0.084;2022-11-18T17:08:52;21.40;62.20
34231;DHT22;21574;51.538;-0.084;2022-11-18T17:11:18;21.40;62.30
34231;DHT22;21574;51.538;-0.084;2022-11-18T17:13:44;21.40;62.30
34231;DHT22;21574;51.538;-0.084;2022-11-18T17:16:13;21.40;63.00
34231;DHT22;21574;51.538;-0.084;2022-11-18T17:18:39;21.50;62.70
34231;DHT22;21574;51.538;-0.084;2022-11-18T17:21:07;21.50;62.80